Time;durP1;ratioP1;P1;durP2;ratioP2;P2;SDS_P1;SDS_P2;PMS_P1;PMS_P2;Temp;Humidity;BMP_temperature;BMP_pressure;BME280_temperature;BME280_humidity;BME280_pressure;Samples;Min_cycle;Max_cycle;Signal;HPM_P1;HPM_P2
2021/05/02 00:02:07;;;;;;;28.23;20.13;;;4.20;99.90;;;;;;5074282;28;20231;-74
2021/05/02 00:04:34;;;;;;;23.37;18.63;;;4.10;99.90;;;;;;5075295;28;20244;-74
2021/05/02 00:07:02;;;;;;;24.27;19.00;;;4.10;99.90;;;;;;5074905;28;20202;-73
2021/05/02 00:09:29;;;;;;;24.43;18.60;;;3.90;99.90;;;;;;5083478;28;20186;-73
2021/05/02 00:11:56;;;;;;;27.90;18.30;;;3.80;99.90;;;;;;5074677;28;20652;-71
2021/05/02 00:14:24;;;;;;;31.37;20.73;;;3.80;99.90;;;;;;5075068;28;20195;-72
2021/05/02 00:16:51;;;;;;;28.40;20.17;;;3.90;99.90;;;;;;5074862;28;20199;-71
2021/05/02 00:19:19;;;;;;;28.03;20.23;;;4.00;99.90;;;;;;5085293;28;20198;-72
2021/05/02 00:21:46;;;;;;;29.63;20.63;;;4.10;99.90;;;;;;5074928;28;20682;-72
2021/05/02 00:24:14;;;;;;;31.73;21.53;;;4.30;99.90;;;;;;5074433;28;20245;-72
2021/05/02 00:26:41;;;;;;;29.40;20.77;;;4.80;99.90;;;;;;5074880;28;20199;-71
2021/05/02 00:29:10;;;;;;;28.33;20.53;;;5.20;99.90;;;;;;5074843;28;20195;-72
2021/05/02 00:31:41;;;;;;;32.73;19.40;;;5.50;99.90;;;;;;5085707;28;20205;-72
2021/05/02 00:34:09;;;;;;;28.17;19.00;;;5.60;99.90;;;;;;5094695;28;20653;-72
2021/05/02 00:36:36;;;;;;;26.23;18.97;;;5.70;99.90;;;;;;5094960;28;20553;-74
2021/05/02 00:39:04;;;;;;;27.80;19.43;;;5.70;99.90;;;;;;5087878;28;20203;-72
2021/05/02 00:41:33;;;;;;;26.53;18.13;;;5.80;99.90;;;;;;5073821;28;20210;-72
2021/05/02 00:44:03;;;;;;;28.30;19.57;;;5.80;99.90;;;;;;5074213;28;20652;-74
2021/05/02 00:46:35;;;;;;;26.13;18.47;;;5.90;99.90;;;;;;5074212;28;20202;-75
2021/05/02 00:49:13;;;;;;;29.47;19.63;;;5.90;99.90;;;;;;5074180;28;20655;-75
2021/05/02 00:51:42;;;;;;;27.87;18.83;;;5.90;99.90;;;;;;5080458;28;20229;-72
2021/05/02 00:54:24;;;;;;;29.17;19.33;;;5.90;99.90;;;;;;5094333;28;20194;-72
2021/05/02 00:56:58;;;;;;;26.80;19.57;;;5.90;99.90;;;;;;5092587;28;20190;-72
2021/05/02 00:59:44;;;;;;;23.07;17.90;;;5.90;99.90;;;;;;5092019;28;20187;-74
2021/05/02 01:02:13;;;;;;;26.33;17.57;;;5.90;99.90;;;;;;5073815;28;20218;-73
2021/05/02 01:04:42;;;;;;;34.17;19.00;;;5.90;99.90;;;;;;5074117;28;20237;-72
2021/05/02 01:07:14;;;;;;;27.07;19.10;;;5.90;99.90;;;;;;5073440;28;20229;-73
2021/05/02 01:09:41;;;;;;;26.03;18.27;;;5.90;99.90;;;;;;5087364;28;20269;-72
2021/05/02 01:12:12;;;;;;;30.43;20.87;;;5.90;99.90;;;;;;5106388;28;20202;-74
2021/05/02 01:14:45;;;;;;;26.27;19.93;;;5.90;99.90;;;;;;5074022;28;20198;-73
2021/05/02 01:17:16;;;;;;;34.23;20.87;;;5.90;99.90;;;;;;5073550;28;20240;-73
2021/05/02 01:19:46;;;;;;;30.80;20.83;;;5.90;99.90;;;;;;5073455;28;20187;-73
2021/05/02 01:22:15;;;;;;;28.00;19.10;;;5.80;99.90;;;;;;5074221;28;20222;-72
2021/05/02 01:24:47;;;;;;;28.80;19.50;;;5.70;99.90;;;;;;5073254;28;20563;-73
2021/05/02 01:27:25;;;;;;;30.37;20.27;;;5.60;99.90;;;;;;5072908;28;20195;-73
2021/05/02 01:29:52;;;;;;;27.33;19.00;;;5.40;99.90;;;;;;5079959;28;20194;-73
2021/05/02 01:32:20;;;;;;;27.37;19.03;;;5.30;99.90;;;;;;5094026;28;20198;-73
2021/05/02 01:34:47;;;;;;;26.97;19.13;;;5.20;99.90;;;;;;5093891;28;20281;-73
2021/05/02 01:37:13;;;;;;;28.83;18.93;;;5.10;99.90;;;;;;5085257;28;20556;-73
2021/05/02 01:39:40;;;;;;;23.60;18.07;;;5.00;99.90;;;;;;5071185;28;20203;-73
2021/05/02 01:42:09;;;;;;;28.57;18.97;;;4.90;99.90;;;;;;5072015;28;20245;-72
2021/05/02 01:44:36;;;;;;;28.47;19.47;;;4.70;99.90;;;;;;5087898;28;20222;-74
2021/05/02 01:47:08;;;;;;;30.00;19.23;;;4.60;99.90;;;;;;5093556;28;20217;-73
2021/05/02 01:49:40;;;;;;;25.17;17.80;;;4.50;99.90;;;;;;5093609;28;20585;-73
2021/05/02 01:52:08;;;;;;;29.57;18.90;;;4.50;99.90;;;;;;5072194;28;20262;-72
2021/05/02 01:54:37;;;;;;;25.17;18.50;;;4.40;99.90;;;;;;5073161;28;20223;-73
2021/05/02 01:57:04;;;;;;;27.53;19.37;;;4.30;99.90;;;;;;5073049;28;20342;-73
2021/05/02 01:59:32;;;;;;;28.57;19.67;;;4.30;99.90;;;;;;5073099;28;20191;-73
2021/05/02 02:01:59;;;;;;;26.10;19.00;;;4.20;99.90;;;;;;5072604;28;20222;-73
2021/05/02 02:04:30;;;;;;;26.13;18.13;;;4.10;99.90;;;;;;5072144;28;20644;-73
2021/05/02 02:06:57;;;;;;;31.53;20.03;;;4.10;99.90;;;;;;5072994;28;20243;-72
2021/05/02 02:09:24;;;;;;;30.77;19.30;;;4.00;99.90;;;;;;5093197;28;20197;-73
2021/05/02 02:11:52;;;;;;;27.13;18.03;;;4.00;99.90;;;;;;5081007;28;20345;-72
2021/05/02 02:14:19;;;;;;;27.37;18.93;;;3.90;99.90;;;;;;5072954;28;20385;-73
2021/05/02 02:16:47;;;;;;;32.37;19.77;;;3.90;99.90;;;;;;5072804;28;20610;-72
2021/05/02 02:19:14;;;;;;;28.07;19.07;;;3.90;99.90;;;;;;5072456;28;20198;-72
2021/05/02 02:21:44;;;;;;;32.17;19.93;;;3.90;99.90;;;;;;5070936;28;20206;-73
2021/05/02 02:24:12;;;;;;;30.80;19.17;;;3.80;99.90;;;;;;5072685;28;20199;-72
2021/05/02 02:26:51;;;;;;;30.83;19.20;;;3.70;99.90;;;;;;5072714;28;20236;-72
2021/05/02 02:29:18;;;;;;;27.67;19.23;;;3.60;99.90;;;;;;5072434;28;20559;-73
2021/05/02 02:31:50;;;;;;;27.47;18.73;;;3.50;99.90;;;;;;5071643;28;20564;-72
2021/05/02 02:34:17;;;;;;;26.77;18.60;;;3.50;99.90;;;;;;5072671;28;20187;-73
2021/05/02 02:36:44;;;;;;;25.67;19.50;;;3.40;99.90;;;;;;5072132;28;20203;-73
2021/05/02 02:39:11;;;;;;;26.17;18.13;;;3.30;99.90;;;;;;5072515;28;20195;-72
2021/05/02 02:41:39;;;;;;;26.73;17.93;;;3.20;99.90;;;;;;5072062;28;20206;-72
2021/05/02 02:44:08;;;;;;;29.63;17.57;;;3.10;99.90;;;;;;5071459;28;20226;-73
2021/05/02 02:46:48;;;;;;;30.03;18.13;;;3.10;99.90;;;;;;5072275;28;20555;-73
2021/05/02 02:49:21;;;;;;;25.30;17.73;;;3.10;99.90;;;;;;5072721;28;20187;-72
2021/05/02 02:51:50;;;;;;;22.47;16.97;;;3.10;99.90;;;;;;5070755;28;20619;-72
2021/05/02 02:54:18;;;;;;;23.30;16.30;;;3.10;99.90;;;;;;5072559;28;20563;-71
2021/05/02 02:56:47;;;;;;;25.03;16.80;;;3.00;99.90;;;;;;5072279;28;20199;-72
2021/05/02 02:59:19;;;;;;;28.63;16.50;;;3.00;99.90;;;;;;5071963;28;20202;-72
2021/05/02 03:01:47;;;;;;;25.60;17.10;;;3.00;99.90;;;;;;5073585;28;20225;-72
2021/05/02 03:04:17;;;;;;;26.13;17.40;;;2.90;99.90;;;;;;5071660;28;20594;-72
2021/05/02 03:06:45;;;;;;;23.30;16.70;;;2.90;99.90;;;;;;5072408;28;20290;-73
2021/05/02 03:09:15;;;;;;;25.60;16.40;;;2.80;99.90;;;;;;5077001;28;20575;-72
2021/05/02 03:11:42;;;;;;;23.30;16.03;;;2.80;99.90;;;;;;5091150;28;20191;-72
2021/05/02 03:14:12;;;;;;;26.33;17.27;;;2.80;99.90;;;;;;5072156;28;20194;-72
2021/05/02 03:16:41;;;;;;;24.03;16.37;;;2.70;99.90;;;;;;5072209;28;20298;-71
2021/05/02 03:19:14;;;;;;;27.37;16.57;;;2.60;99.90;;;;;;5074255;28;20257;-72
2021/05/02 03:21:51;;;;;;;21.87;16.73;;;2.50;99.90;;;;;;5071797;28;21071;-72
2021/05/02 03:24:25;;;;;;;27.50;16.10;;;2.50;99.90;;;;;;5071593;28;20285;-72
2021/05/02 03:26:57;;;;;;;26.63;16.63;;;2.50;99.90;;;;;;5081971;28;20201;-73
2021/05/02 03:29:26;;;;;;;24.23;16.30;;;2.50;99.90;;;;;;5072427;28;20211;-72
2021/05/02 03:31:55;;;;;;;24.90;16.60;;;2.60;99.90;;;;;;5073121;28;20207;-72
2021/05/02 03:34:23;;;;;;;24.03;16.37;;;2.60;99.90;;;;;;5071609;28;20233;-71
2021/05/02 03:36:52;;;;;;;22.37;15.83;;;2.60;99.90;;;;;;5071487;28;20195;-72
2021/05/02 03:39:19;;;;;;;24.37;16.67;;;2.60;99.90;;;;;;5071595;28;20199;-72
2021/05/02 03:41:45;;;;;;;24.40;16.40;;;2.60;99.90;;;;;;5071877;28;20199;-72
2021/05/02 03:44:12;;;;;;;21.67;15.53;;;2.50;99.90;;;;;;5071833;28;20246;-72
2021/05/02 03:46:38;;;;;;;22.67;15.73;;;2.50;99.90;;;;;;5071873;28;20202;-72
2021/05/02 03:49:06;;;;;;;25.10;16.00;;;2.40;99.90;;;;;;5077214;28;20252;-72
2021/05/02 03:51:34;;;;;;;25.53;16.30;;;2.30;99.90;;;;;;5082356;28;20227;-71
2021/05/02 03:54:02;;;;;;;28.43;15.60;;;2.20;99.90;;;;;;5071806;28;20195;-72
2021/05/02 03:56:34;;;;;;;22.47;15.67;;;2.20;99.90;;;;;;5079239;28;20203;-72
2021/05/02 03:59:11;;;;;;;19.00;15.07;;;2.30;99.90;;;;;;5091340;28;20198;-72
2021/05/02 04:01:42;;;;;;;24.07;14.43;;;2.20;99.90;;;;;;5095711;28;20186;-72
2021/05/02 04:04:11;;;;;;;23.20;15.57;;;2.20;99.90;;;;;;5090473;28;20222;-72
2021/05/02 04:06:38;;;;;;;19.50;14.33;;;2.20;99.90;;;;;;5074366;28;20202;-72
2021/05/02 04:09:07;;;;;;;23.80;15.67;;;2.10;99.90;;;;;;5078147;28;20552;-72
2021/05/02 04:11:35;;;;;;;24.17;15.70;;;2.10;99.90;;;;;;5106760;28;20198;-72
2021/05/02 04:14:02;;;;;;;23.37;14.47;;;2.10;99.90;;;;;;5076367;28;20203;-72
2021/05/02 04:16:29;;;;;;;22.17;15.03;;;2.10;99.90;;;;;;5075891;28;20199;-72
2021/05/02 04:18:55;;;;;;;20.30;14.67;;;2.10;99.90;;;;;;5078920;28;20198;-72
2021/05/02 04:21:22;;;;;;;20.80;14.07;;;2.10;99.90;;;;;;5089356;28;20201;-72
2021/05/02 04:23:49;;;;;;;23.13;14.17;;;2.10;99.90;;;;;;5074644;28;20229;-72
2021/05/02 04:26:17;;;;;;;23.87;14.93;;;2.10;99.90;;;;;;5074812;28;20206;-72
2021/05/02 04:28:43;;;;;;;20.37;13.67;;;2.20;99.90;;;;;;5074038;28;20209;-72
2021/05/02 04:31:11;;;;;;;18.33;13.00;;;2.20;99.90;;;;;;5074158;28;20199;-72
2021/05/02 04:33:37;;;;;;;20.87;13.87;;;2.30;99.90;;;;;;5074732;28;20293;-72
2021/05/02 04:36:05;;;;;;;20.47;12.57;;;2.30;99.90;;;;;;5074344;28;20195;-72
2021/05/02 04:38:32;;;;;;;21.07;13.30;;;2.30;99.90;;;;;;5074398;28;20644;-72
2021/05/02 04:40:59;;;;;;;17.80;13.10;;;2.40;99.90;;;;;;5074368;28;20679;-72
2021/05/02 04:43:26;;;;;;;24.97;12.77;;;2.40;99.90;;;;;;5074336;28;20226;-72
2021/05/02 04:45:53;;;;;;;19.63;12.30;;;2.50;99.90;;;;;;5073586;28;20191;-72
2021/05/02 04:48:19;;;;;;;20.50;12.70;;;2.50;99.90;;;;;;5074325;28;20191;-72
2021/05/02 04:50:46;;;;;;;17.93;11.80;;;2.60;99.90;;;;;;5073856;28;20203;-72
2021/05/02 04:53:12;;;;;;;19.80;12.30;;;2.60;99.90;;;;;;5087522;28;20714;-72
2021/05/02 04:55:39;;;;;;;20.57;12.27;;;2.70;99.90;;;;;;5082154;28;20245;-72
2021/05/02 04:58:08;;;;;;;23.57;13.80;;;2.70;99.90;;;;;;5073925;28;20203;-72
2021/05/02 05:00:35;;;;;;;19.33;13.10;;;2.80;99.90;;;;;;5074157;28;20660;-72
2021/05/02 05:03:02;;;;;;;19.27;12.77;;;3.10;99.90;;;;;;5073541;28;20584;-72
2021/05/02 05:05:30;;;;;;;19.77;13.47;;;3.40;99.90;;;;;;5073919;28;20206;-72
2021/05/02 05:07:56;;;;;;;24.40;14.87;;;3.80;99.90;;;;;;5073976;28;20206;-72
2021/05/02 05:10:23;;;;;;;19.93;15.20;;;4.30;99.90;;;;;;5099174;28;20194;-73
2021/05/02 05:12:49;;;;;;;20.50;15.93;;;4.90;99.90;;;;;;5114406;28;20198;-72
2021/05/02 05:15:16;;;;;;;24.27;16.13;;;5.60;99.90;;;;;;5073944;28;20199;-72
2021/05/02 05:17:43;;;;;;;26.13;15.90;;;5.80;99.90;;;;;;5073841;28;20199;-72
2021/05/02 05:20:11;;;;;;;21.53;16.70;;;6.30;99.90;;;;;;5073476;28;20195;-72
2021/05/02 05:22:37;;;;;;;27.57;16.77;;;6.80;99.90;;;;;;5077265;28;20222;-72
2021/05/02 05:25:05;;;;;;;27.53;18.63;;;7.30;99.90;;;;;;5091656;28;20308;-72
2021/05/02 05:27:31;;;;;;;27.23;19.10;;;7.60;99.90;;;;;;5093752;28;20198;-72
2021/05/02 05:29:58;;;;;;;25.77;18.33;;;8.00;99.90;;;;;;5092800;28;20194;-72
2021/05/02 05:32:24;;;;;;;25.40;17.57;;;8.30;99.90;;;;;;5093819;28;20538;-72
2021/05/02 05:34:51;;;;;;;23.50;16.17;;;8.40;99.90;;;;;;5092410;28;20674;-72
2021/05/02 05:37:18;;;;;;;19.60;15.07;;;8.50;99.90;;;;;;5093574;28;20202;-72
2021/05/02 05:39:45;;;;;;;18.83;14.80;;;8.70;99.90;;;;;;5082182;28;20199;-72
2021/05/02 05:42:11;;;;;;;15.90;13.50;;;9.00;99.90;;;;;;5073302;28;20203;-73
2021/05/02 05:44:37;;;;;;;14.17;11.73;;;9.50;99.90;;;;;;5073018;28;20244;-72
2021/05/02 05:47:04;;;;;;;10.33;8.60;;;9.80;99.90;;;;;;5072923;28;20562;-73
2021/05/02 05:49:31;;;;;;;13.53;7.77;;;10.20;99.90;;;;;;5072982;28;20195;-72
2021/05/02 05:51:58;;;;;;;8.07;6.73;;;10.40;99.90;;;;;;5072546;28;20235;-71
2021/05/02 05:54:25;;;;;;;7.93;5.13;;;11.00;99.90;;;;;;5072436;28;20657;-73
2021/05/02 05:56:51;;;;;;;8.20;4.20;;;11.20;99.90;;;;;;5072626;28;20198;-72
2021/05/02 05:59:18;;;;;;;4.70;3.10;;;11.50;99.90;;;;;;5073014;28;20534;-73
2021/05/02 06:01:45;;;;;;;4.53;2.80;;;11.80;99.90;;;;;;5085205;28;20605;-72
2021/05/02 06:04:11;;;;;;;3.33;2.57;;;12.30;99.90;;;;;;5091579;28;20229;-73
2021/05/02 06:06:38;;;;;;;4.27;2.47;;;12.80;99.90;;;;;;5093268;28;20194;-72
2021/05/02 06:09:08;;;;;;;2.57;1.90;;;13.20;99.90;;;;;;5094433;28;20194;-72
2021/05/02 06:11:35;;;;;;;4.70;2.20;;;13.50;99.90;;;;;;5089761;27;20552;-72
2021/05/02 06:14:04;;;;;;;3.33;2.10;;;13.60;99.90;;;;;;5072431;28;20199;-74
2021/05/02 06:16:31;;;;;;;2.20;2.00;;;13.80;99.90;;;;;;5072827;28;20195;-73
2021/05/02 06:18:59;;;;;;;1.77;1.60;;;14.10;99.90;;;;;;5072474;28;20199;-73
2021/05/02 06:21:26;;;;;;;4.27;1.87;;;14.40;99.90;;;;;;5084102;28;20599;-73
2021/05/02 06:23:54;;;;;;;5.23;1.80;;;14.10;99.90;;;;;;5090591;28;20222;-73
2021/05/02 06:26:22;;;;;;;1.73;1.50;;;14.20;99.90;;;;;;5073970;28;20210;-72
2021/05/02 06:28:50;;;;;;;5.50;2.08;;;14.40;99.90;;;;;;5086615;28;20198;-72
2021/05/02 06:31:17;;;;;;;3.40;2.03;;;14.60;99.90;;;;;;5092903;28;20206;-72
2021/05/02 06:33:44;;;;;;;2.05;1.73;;;15.10;99.90;;;;;;5086492;28;20195;-73
2021/05/02 06:36:10;;;;;;;3.35;2.17;;;15.00;99.90;;;;;;5072298;28;20652;-72
2021/05/02 06:38:37;;;;;;;3.92;2.10;;;15.10;99.90;;;;;;5072175;28;20272;-73
2021/05/02 06:41:04;;;;;;;5.15;2.10;;;15.10;99.90;;;;;;5079926;28;20251;-73
2021/05/02 06:43:31;;;;;;;0.00;0.00;;;14.90;99.90;;;;;;5092706;28;20590;-72
2021/05/02 06:45:58;;;;;;;0.00;0.00;;;14.70;99.90;;;;;;5092379;28;20198;-73
2021/05/02 06:48:24;;;;;;;0.32;0.20;;;14.70;99.90;;;;;;5091247;28;20648;-73
2021/05/02 06:50:51;;;;;;;1.48;1.38;;;15.00;99.90;;;;;;5092274;28;20239;-73
2021/05/02 06:53:18;;;;;;;1.50;1.05;;;15.40;99.90;;;;;;5088594;28;20233;-72
2021/05/02 06:55:44;;;;;;;2.58;1.60;;;15.70;99.90;;;;;;5076141;28;20195;-73
2021/05/02 06:58:11;;;;;;;0.22;0.13;;;16.30;99.90;;;;;;5092225;28;20194;-72
2021/05/02 07:00:39;;;;;;;2.40;1.50;;;16.70;99.90;;;;;;5092525;28;20202;-71
2021/05/02 07:03:06;;;;;;;2.90;1.30;;;16.80;99.90;;;;;;5092068;28;20702;-72
2021/05/02 07:05:32;;;;;;;0.20;0.20;;;17.00;99.90;;;;;;5092566;28;20198;-72
2021/05/02 07:07:59;;;;;;;0.40;0.40;;;15.70;99.90;;;;;;5090422;28;20194;-72
2021/05/02 07:10:26;;;;;;;0.20;0.10;;;14.50;99.90;;;;;;5105267;28;20197;-71
2021/05/02 07:12:52;;;;;;;0.00;0.00;;;14.20;99.90;;;;;;5107261;28;20193;-72
2021/05/02 07:15:19;;;;;;;0.00;0.00;;;15.00;99.90;;;;;;5072249;28;20248;-71
2021/05/02 07:17:47;;;;;;;0.00;0.00;;;16.10;99.90;;;;;;5071401;28;20206;-71
2021/05/02 07:20:16;;;;;;;0.00;0.00;;;16.50;99.90;;;;;;5071401;28;20207;-71
2021/05/02 07:22:44;;;;;;;0.00;0.00;;;16.60;99.90;;;;;;5071491;28;20579;-72
2021/05/02 07:25:11;;;;;;;0.00;0.00;;;17.20;99.90;;;;;;5072272;28;20195;-72
2021/05/02 07:27:38;;;;;;;0.00;0.00;;;17.10;99.90;;;;;;5084804;28;20251;-71
2021/05/02 07:30:05;;;;;;;0.00;0.00;;;17.10;99.90;;;;;;5091857;28;20195;-72
2021/05/02 07:32:32;;;;;;;0.00;0.00;;;16.90;99.90;;;;;;5092218;28;20195;-72
2021/05/02 07:34:59;;;;;;;0.00;0.00;;;17.30;99.90;;;;;;5092767;28;20202;-72
2021/05/02 07:37:26;;;;;;;0.00;0.00;;;17.70;99.90;;;;;;5075837;28;20198;-72
2021/05/02 07:39:52;;;;;;;0.08;0.08;;;17.90;99.90;;;;;;5075801;28;20195;-72
2021/05/02 07:42:19;;;;;;;0.00;0.00;;;18.30;99.90;;;;;;5075643;28;20199;-72
2021/05/02 07:44:45;;;;;;;0.00;0.00;;;18.30;99.90;;;;;;5074705;28;20206;-72
2021/05/02 07:47:11;;;;;;;0.00;0.00;;;17.70;99.90;;;;;;5075628;28;20203;-72
2021/05/02 07:49:38;;;;;;;0.00;0.00;;;17.10;99.90;;;;;;5074729;28;20203;-71
2021/05/02 07:52:05;;;;;;;0.00;0.00;;;16.60;99.90;;;;;;5074941;28;20227;-71
2021/05/02 07:54:32;;;;;;;0.00;0.00;;;16.10;99.90;;;;;;5075220;28;20563;-72
2021/05/02 07:56:58;;;;;;;0.00;0.00;;;16.60;99.90;;;;;;5075059;28;20671;-72
2021/05/02 07:59:25;;;;;;;0.15;0.15;;;17.90;99.90;;;;;;5075795;28;20210;-71
2021/05/02 08:01:51;;;;;;;0.00;0.00;;;18.30;99.90;;;;;;5075431;28;20543;-72
2021/05/02 08:04:18;;;;;;;0.00;0.00;;;17.40;99.90;;;;;;5074982;28;20284;-73
2021/05/02 08:06:44;;;;;;;0.00;0.00;;;16.00;99.90;;;;;;5075245;28;20202;-73
2021/05/02 08:09:12;;;;;;;0.00;0.00;;;14.80;99.90;;;;;;5080218;28;20203;-72
2021/05/02 08:11:38;;;;;;;0.10;0.10;;;14.80;99.90;;;;;;5109933;28;20219;-73
2021/05/02 08:14:05;;;;;;;0.00;0.00;;;16.00;99.90;;;;;;5095369;28;20198;-72
2021/05/02 08:16:33;;;;;;;0.00;0.00;;;17.50;99.90;;;;;;5089819;28;20721;-72
2021/05/02 08:19:01;;;;;;;0.00;0.00;;;18.80;99.90;;;;;;5074754;28;20678;-72
2021/05/02 08:21:28;;;;;;;0.13;0.13;;;19.40;99.90;;;;;;5075066;28;20528;-73
2021/05/02 08:23:54;;;;;;;0.20;0.20;;;19.80;99.90;;;;;;5089766;28;20222;-72
2021/05/02 08:26:22;;;;;;;0.00;0.00;;;20.40;99.90;;;;;;5094150;28;20786;-72
2021/05/02 08:28:49;;;;;;;0.00;0.00;;;20.30;99.90;;;;;;5095283;28;20201;-72
2021/05/02 08:31:15;;;;;;;0.03;0.03;;;20.20;99.90;;;;;;5095007;28;20202;-72
2021/05/02 08:33:42;;;;;;;0.00;0.00;;;19.40;99.90;;;;;;5079710;28;20199;-73
2021/05/02 08:36:09;;;;;;;0.00;0.00;;;18.70;99.90;;;;;;5074291;28;20651;-72
2021/05/02 08:38:36;;;;;;;0.20;0.20;;;18.20;99.90;;;;;;5074430;28;20537;-72
2021/05/02 08:41:03;;;;;;;0.00;0.00;;;18.50;99.90;;;;;;5074070;28;20210;-72
2021/05/02 08:43:31;;;;;;;0.00;0.00;;;19.10;99.90;;;;;;5074329;28;20219;-72
2021/05/02 08:45:57;;;;;;;0.00;0.00;;;18.90;99.90;;;;;;5073483;28;20286;-73
2021/05/02 08:48:25;;;;;;;0.00;0.00;;;19.50;99.90;;;;;;5074264;28;20203;-73
2021/05/02 08:50:54;;;;;;;1.48;0.55;;;20.40;99.90;;;;;;5073737;28;20199;-74
2021/05/02 08:53:20;;;;;;;0.00;0.00;;;21.10;99.90;;;;;;5094700;28;20186;-73
2021/05/02 08:55:47;;;;;;;0.10;0.10;;;22.30;99.90;;;;;;5094438;28;20225;-74
2021/05/02 08:58:18;;;;;;;0.00;0.00;;;22.90;99.90;;;;;;5093527;28;20295;-74
2021/05/02 09:00:45;;;;;;;0.00;0.00;;;22.30;99.90;;;;;;5086873;28;20194;-73
2021/05/02 09:03:12;;;;;;;0.00;0.00;;;21.90;99.90;;;;;;5076721;28;20226;-73
2021/05/02 09:05:45;;;;;;;0.00;0.00;;;21.20;99.90;;;;;;5073455;28;20211;-73
2021/05/02 09:08:30;;;;;;;0.10;0.10;;;21.30;99.90;;;;;;5083401;28;20259;-73
2021/05/02 09:10:57;;;;;;;0.10;0.10;;;20.80;99.90;;;;;;5095652;28;20202;-73
2021/05/02 09:13:24;;;;;;;0.17;0.17;;;20.30;99.90;;;;;;5094095;28;20604;-74
2021/05/02 09:15:58;;;;;;;0.00;0.00;;;20.60;99.90;;;;;;5094151;28;20647;-73
2021/05/02 09:18:34;;;;;;;0.08;0.08;;;21.40;99.90;;;;;;5093713;28;20273;-74
2021/05/02 09:21:02;;;;;;;0.00;0.00;;;22.10;99.90;;;;;;5091721;28;20194;-74
2021/05/02 09:23:35;;;;;;;0.00;0.00;;;22.50;99.90;;;;;;5072920;28;20269;-73
2021/05/02 09:26:04;;;;;;;0.00;0.00;;;22.00;99.90;;;;;;5073464;28;20187;-74
2021/05/02 09:28:44;;;;;;;0.20;0.20;;;21.90;99.90;;;;;;5073481;28;20291;-73
2021/05/02 09:31:14;;;;;;;0.00;0.00;;;21.00;99.90;;;;;;5073214;28;20205;-73
2021/05/02 09:33:40;;;;;;;0.00;0.00;;;19.50;99.90;;;;;;5073461;28;20194;-73
2021/05/02 09:36:09;;;;;;;0.00;0.00;;;18.60;99.90;;;;;;5074418;28;20203;-73
2021/05/02 09:38:36;;;;;;;0.22;0.17;;;18.30;99.90;;;;;;5072991;28;20199;-73
2021/05/02 09:41:03;;;;;;;0.20;0.13;;;17.90;99.90;;;;;;5072408;28;20296;-73
2021/05/02 09:43:33;;;;;;;0.00;0.00;;;17.40;99.90;;;;;;5073151;28;20276;-72
2021/05/02 09:46:29;;;;;;;0.00;0.00;;;17.10;99.90;;;;;;5073539;28;20255;-72
2021/05/02 09:49:00;;;;;;;0.00;0.00;;;18.20;99.90;;;;;;5072940;28;20279;-73
2021/05/02 09:51:29;;;;;;;0.00;0.00;;;19.80;99.90;;;;;;5071997;28;20264;-73
2021/05/02 09:54:10;;;;;;;0.10;0.10;;;20.10;99.90;;;;;;5073096;28;20195;-73
2021/05/02 09:56:41;;;;;;;0.00;0.00;;;19.40;99.90;;;;;;5072324;28;20195;-73
2021/05/02 09:59:24;;;;;;;0.00;0.00;;;18.80;99.90;;;;;;5073061;28;20622;-73
2021/05/02 10:02:26;;;;;;;0.00;0.00;;;18.40;99.90;;;;;;5073182;28;20234;-73
2021/05/02 10:04:56;;;;;;;0.00;0.00;;;18.40;99.90;;;;;;5072824;28;20227;-73
2021/05/02 10:07:24;;;;;;;0.00;0.00;;;17.90;99.90;;;;;;5071823;28;20199;-73
2021/05/02 10:09:51;;;;;;;0.00;0.00;;;18.60;99.90;;;;;;5088593;28;20243;-73
2021/05/02 10:12:17;;;;;;;0.00;0.00;;;19.70;99.90;;;;;;5099004;28;20574;-73
2021/05/02 10:14:46;;;;;;;0.30;0.30;;;20.90;99.90;;;;;;5092900;28;20198;-74
2021/05/02 10:17:14;;;;;;;0.00;0.00;;;20.90;99.90;;;;;;5092652;28;20197;-74
2021/05/02 10:19:40;;;;;;;0.00;0.00;;;20.70;99.90;;;;;;5092293;28;20198;-75
2021/05/02 10:22:07;;;;;;;0.65;0.43;;;20.80;99.90;;;;;;5070413;28;20244;-74
2021/05/02 10:24:35;;;;;;;0.00;0.00;;;20.20;99.90;;;;;;5076141;28;20319;-74
2021/05/02 10:27:06;;;;;;;0.00;0.00;;;19.30;99.90;;;;;;5092319;28;20198;-74
2021/05/02 10:29:33;;;;;;;0.00;0.00;;;18.60;99.90;;;;;;5089494;28;20191;-72
2021/05/02 10:32:01;;;;;;;0.00;0.00;;;18.20;99.90;;;;;;5085701;28;20601;-72
2021/05/02 10:34:30;;;;;;;0.10;0.10;;;17.60;99.90;;;;;;5075834;28;20203;-73
2021/05/02 10:37:33;;;;;;;0.00;0.00;;;16.80;99.90;;;;;;5074271;28;20190;-74
2021/05/02 10:40:02;;;;;;;0.00;0.00;;;16.20;99.90;;;;;;5070985;28;20237;-79
2021/05/02 10:42:51;;;;;;;0.00;0.00;;;16.40;99.90;;;;;;5087332;28;20199;-77
2021/05/02 10:45:44;;;;;;;0.10;0.10;;;18.00;99.90;;;;;;5081299;28;20202;-81
2021/05/02 10:48:35;;;;;;;0.00;0.00;;;19.00;99.90;;;;;;5092838;28;20186;-75
2021/05/02 10:51:23;;;;;;;0.10;0.10;;;18.30;99.90;;;;;;5078860;28;20213;-76
2021/05/02 10:54:06;;;;;;;0.00;0.00;;;17.20;99.90;;;;;;5071053;28;20607;-75
2021/05/02 10:56:57;;;;;;;0.00;0.00;;;16.60;99.90;;;;;;5072281;28;20190;-75
2021/05/02 10:59:25;;;;;;;0.00;0.00;;;16.90;99.90;;;;;;5064589;28;20198;-76
2021/05/02 11:01:53;;;;;;;0.10;0.10;;;18.10;99.90;;;;;;5076435;28;20206;-76
2021/05/02 11:04:20;;;;;;;0.00;0.00;;;19.50;99.90;;;;;;5077948;28;20223;-74
2021/05/02 11:06:52;;;;;;;7.03;0.25;;;20.80;99.90;;;;;;5078465;28;20396;-74
2021/05/02 11:09:21;;;;;;;0.17;0.17;;;21.70;99.90;;;;;;5093746;28;20198;-75
2021/05/02 11:11:50;;;;;;;0.22;0.22;;;21.00;99.90;;;;;;5094921;28;20570;-75
2021/05/02 11:14:36;;;;;;;0.00;0.00;;;19.80;99.90;;;;;;5095838;28;20198;-74
2021/05/02 11:17:27;;;;;;;0.00;0.00;;;18.20;99.90;;;;;;5095179;28;20709;-75
2021/05/02 11:19:54;;;;;;;0.00;0.00;;;17.80;99.90;;;;;;5086616;28;20297;-75
2021/05/02 11:22:23;;;;;;;0.13;0.00;;;17.50;99.90;;;;;;5080815;28;20202;-76
2021/05/02 11:25:13;;;;;;;0.20;0.20;;;17.50;99.90;;;;;;5092605;28;20228;-76
2021/05/02 11:27:51;;;;;;;0.00;0.00;;;18.50;99.90;;;;;;5084964;28;20903;-76
2021/05/02 11:30:25;;;;;;;0.00;0.00;;;18.80;99.90;;;;;;5080980;28;20208;-76
2021/05/02 11:32:53;;;;;;;0.00;0.00;;;18.60;99.90;;;;;;5083454;28;20293;-75
2021/05/02 11:35:38;;;;;;;0.00;0.00;;;17.90;99.90;;;;;;5081634;28;20281;-76
2021/05/02 11:38:05;;;;;;;0.37;0.20;;;17.40;99.90;;;;;;5078370;28;20228;-76
2021/05/02 11:40:38;;;;;;;0.10;0.10;;;17.40;99.90;;;;;;5076797;28;20330;-76
2021/05/02 11:43:06;;;;;;;0.00;0.00;;;17.00;99.90;;;;;;5074275;28;20575;-76
2021/05/02 11:45:42;;;;;;;0.47;0.47;;;16.60;99.90;;;;;;5074307;28;20225;-78
2021/05/02 11:48:09;;;;;;;0.00;0.00;;;16.10;99.90;;;;;;5069956;28;20252;-75
2021/05/02 11:50:40;;;;;;;0.00;0.00;;;15.90;99.90;;;;;;5071314;28;20217;-75
2021/05/02 11:53:08;;;;;;;0.00;0.00;;;16.40;99.90;;;;;;5072621;28;20259;-76
2021/05/02 11:55:37;;;;;;;0.00;0.00;;;17.60;99.90;;;;;;5076576;28;20286;-76
2021/05/02 11:58:05;;;;;;;0.20;0.20;;;18.20;99.90;;;;;;5070792;28;20255;-75
2021/05/02 12:00:40;;;;;;;0.00;0.00;;;19.30;99.90;;;;;;5072619;28;20203;-76
2021/05/02 12:03:08;;;;;;;4.57;0.70;;;20.00;99.90;;;;;;5078852;28;20222;-76
2021/05/02 12:05:46;;;;;;;0.43;0.30;;;19.60;99.90;;;;;;5080762;28;20240;-76
2021/05/02 12:08:15;;;;;;;0.00;0.00;;;19.50;99.90;;;;;;5073736;28;20647;-76
2021/05/02 12:10:43;;;;;;;0.00;0.00;;;19.40;99.90;;;;;;5077212;28;20202;-76
2021/05/02 12:13:27;;;;;;;0.57;0.57;;;20.20;99.90;;;;;;5073906;28;20203;-76
2021/05/02 12:16:03;;;;;;;0.17;0.13;;;20.50;99.90;;;;;;5073352;28;20206;-77
2021/05/02 12:18:56;;;;;;;0.63;0.35;;;21.00;99.90;;;;;;5075256;28;20659;-78
2021/05/02 12:21:27;;;;;;;0.00;0.00;;;20.90;99.90;;;;;;5071890;28;20249;-75
2021/05/02 12:24:03;;;;;;;0.10;0.10;;;20.40;99.90;;;;;;5089474;28;20320;-76
2021/05/02 12:26:30;;;;;;;0.22;0.22;;;20.10;99.90;;;;;;5083939;28;20225;-76
2021/05/02 12:28:58;;;;;;;0.00;0.00;;;19.50;99.90;;;;;;5080169;28;20201;-75
2021/05/02 12:31:25;;;;;;;0.00;0.00;;;19.70;99.90;;;;;;5083868;28;20197;-76
2021/05/02 12:33:52;;;;;;;0.38;0.22;;;20.50;99.90;;;;;;5084133;28;20260;-77
2021/05/02 12:36:19;;;;;;;0.00;0.00;;;20.50;99.90;;;;;;5076235;28;20228;-75
2021/05/02 12:38:58;;;;;;;0.15;0.15;;;21.20;99.90;;;;;;5076413;28;20198;-75
2021/05/02 12:41:25;;;;;;;0.43;0.05;;;20.60;98.10;;;;;;5083435;28;20194;-76
2021/05/02 12:43:52;;;;;;;0.10;0.10;;;19.70;99.90;;;;;;5090868;28;20714;-78
2021/05/02 12:46:39;;;;;;;0.00;0.00;;;19.60;99.90;;;;;;5091468;28;20664;-75
2021/05/02 12:49:16;;;;;;;0.25;0.20;;;19.30;99.90;;;;;;5088496;28;20211;-76
2021/05/02 12:51:46;;;;;;;1.00;0.20;;;18.50;99.70;;;;;;5099928;28;20226;-74
2021/05/02 12:54:14;;;;;;;0.00;0.00;;;18.60;99.90;;;;;;5075282;28;20200;-76
2021/05/02 12:56:43;;;;;;;0.20;0.20;;;18.30;99.90;;;;;;5084049;28;20309;-78